createdAt,value
2023-04-20T00:01:57.121Z,3.92
2023-04-20T00:04:23.826Z,3.93
2023-04-20T00:06:51.783Z,3.92
2023-04-20T00:09:19.230Z,3.89
2023-04-20T00:11:46.002Z,3.91
2023-04-20T00:14:12.656Z,3.93
2023-04-20T00:16:39.454Z,3.97
2023-04-20T00:19:07.732Z,3.98
2023-04-20T00:21:35.650Z,3.93
2023-04-20T00:24:02.223Z,3.92
2023-04-20T00:26:28.900Z,3.92
2023-04-20T00:28:55.524Z,3.95
2023-04-20T00:31:22.262Z,3.98
2023-04-20T00:33:49.149Z,3.96
2023-04-20T00:36:15.937Z,3.96
2023-04-20T00:38:42.568Z,3.98
2023-04-20T00:41:09.130Z,3.99
2023-04-20T00:43:36.100Z,4.03
2023-04-20T00:46:03.882Z,4.04
2023-04-20T00:48:30.649Z,4.00
2023-04-20T00:50:57.400Z,3.94
2023-04-20T00:53:24.021Z,3.95
2023-04-20T00:55:51.003Z,3.93
2023-04-20T00:58:17.597Z,3.87
2023-04-20T01:00:44.409Z,3.85
2023-04-20T01:03:11.292Z,3.86
2023-04-20T01:05:38.065Z,3.77
2023-04-20T01:08:04.809Z,3.81
2023-04-20T01:10:31.418Z,3.81
2023-04-20T01:12:58.287Z,3.76
2023-04-20T01:15:24.945Z,3.68
2023-04-20T01:17:52.517Z,3.66
2023-04-20T01:20:20.621Z,3.68
2023-04-20T01:22:49.176Z,3.68
2023-04-20T01:25:16.682Z,3.72
2023-04-20T01:27:43.614Z,3.65
2023-04-20T01:30:11.204Z,3.64
2023-04-20T01:32:38.285Z,3.63
2023-04-20T01:35:05.980Z,3.70
2023-04-20T01:37:32.842Z,3.74
2023-04-20T01:39:59.613Z,3.70
2023-04-20T01:42:26.455Z,3.73
2023-04-20T01:44:53.060Z,3.71
2023-04-20T01:47:19.710Z,3.72
2023-04-20T01:49:46.310Z,3.73
2023-04-20T01:52:12.965Z,3.63
2023-04-20T01:54:39.585Z,3.63
2023-04-20T01:57:06.192Z,3.70
2023-04-20T01:59:32.772Z,3.71
2023-04-20T02:01:59.512Z,3.74
2023-04-20T02:04:26.162Z,3.72
2023-04-20T02:06:52.778Z,3.72
2023-04-20T02:09:19.665Z,3.71
2023-04-20T02:11:46.368Z,3.71
2023-04-20T02:14:13.020Z,3.65
2023-04-20T02:16:39.711Z,3.67
2023-04-20T02:19:06.934Z,3.46
2023-04-20T02:21:33.668Z,3.42
2023-04-20T02:24:01.395Z,3.41
2023-04-20T02:26:28.013Z,3.36
2023-04-20T02:28:54.676Z,3.35
2023-04-20T02:31:21.369Z,3.39
2023-04-20T02:33:49.993Z,3.36
2023-04-20T02:36:16.724Z,3.35
2023-04-20T02:38:43.356Z,3.32
2023-04-20T02:41:09.947Z,3.35
2023-04-20T02:43:36.652Z,3.29
2023-04-20T02:46:03.292Z,3.25
2023-04-20T02:48:29.964Z,3.29
2023-04-20T02:50:57.292Z,3.18
2023-04-20T02:53:24.072Z,3.20
2023-04-20T02:55:50.782Z,3.23
2023-04-20T02:58:17.730Z,3.27
2023-04-20T03:00:44.348Z,3.17
2023-04-20T03:03:11.294Z,3.01
2023-04-20T03:05:38.033Z,3.00
2023-04-20T03:08:07.022Z,2.99
2023-04-20T03:10:33.897Z,2.93
2023-04-20T03:13:00.615Z,2.94
2023-04-20T03:15:27.334Z,2.95
2023-04-20T03:17:54.060Z,2.89
2023-04-20T03:20:20.727Z,2.89
2023-04-20T03:22:47.388Z,2.84
2023-04-20T03:25:14.124Z,2.86
2023-04-20T03:27:40.931Z,2.78
2023-04-20T03:30:08.612Z,2.80
2023-04-20T03:32:35.584Z,2.77
2023-04-20T03:35:02.303Z,2.77
2023-04-20T03:37:28.925Z,2.70
2023-04-20T03:39:55.668Z,2.69
2023-04-20T03:42:22.350Z,2.74
2023-04-20T03:44:49.020Z,2.73
2023-04-20T03:47:15.782Z,2.80
2023-04-20T03:49:42.438Z,2.81
2023-04-20T03:52:09.207Z,2.73
2023-04-20T03:54:35.987Z,2.71
2023-04-20T03:57:02.651Z,2.70
2023-04-20T03:59:29.405Z,2.76
2023-04-20T04:01:56.718Z,2.73
2023-04-20T04:04:23.702Z,2.74
2023-04-20T04:06:50.708Z,2.74
2023-04-20T04:09:17.561Z,2.79
2023-04-20T04:11:44.346Z,2.85
2023-04-20T04:14:11.022Z,2.77
2023-04-20T04:16:37.769Z,2.73
2023-04-20T04:19:04.465Z,2.78
2023-04-20T04:21:31.038Z,2.77
2023-04-20T04:23:57.772Z,2.75
2023-04-20T04:26:24.846Z,2.82
2023-04-20T04:28:51.878Z,2.84
2023-04-20T04:31:19.677Z,2.86
2023-04-20T04:33:46.586Z,2.86
2023-04-20T04:36:15.353Z,2.88
2023-04-20T04:38:45.234Z,2.84
2023-04-20T04:41:15.834Z,2.84
2023-04-20T04:43:43.211Z,2.87
2023-04-20T04:46:11.080Z,2.85
2023-04-20T04:48:38.323Z,2.92
2023-04-20T04:51:05.055Z,2.93
2023-04-20T04:53:31.672Z,2.86
2023-04-20T04:55:58.297Z,2.81
2023-04-20T04:58:25.136Z,2.87
2023-04-20T05:00:51.816Z,2.91
2023-04-20T05:03:18.687Z,2.90
2023-04-20T05:05:45.716Z,2.90
2023-04-20T05:08:12.451Z,2.83
2023-04-20T05:10:39.109Z,2.87
2023-04-20T05:13:05.840Z,2.91
2023-04-20T05:15:32.678Z,2.81
2023-04-20T05:17:59.357Z,2.87
2023-04-20T05:20:26.197Z,2.94
2023-04-20T05:22:52.886Z,2.96
2023-04-20T05:25:19.529Z,3.01
2023-04-20T05:27:46.327Z,3.05
2023-04-20T05:30:21.471Z,3.03
2023-04-20T05:32:51.570Z,3.02
2023-04-20T05:35:19.272Z,3.06
2023-04-20T05:37:47.706Z,3.03
2023-04-20T05:40:15.837Z,3.08
2023-04-20T05:42:42.511Z,3.13
2023-04-20T05:45:09.896Z,3.13
2023-04-20T05:47:36.585Z,3.14
2023-04-20T05:50:03.768Z,3.14
2023-04-20T05:52:30.358Z,3.05
2023-04-20T05:54:59.557Z,3.14
2023-04-20T05:57:26.274Z,3.14
2023-04-20T05:59:53.136Z,3.15
2023-04-20T06:02:19.813Z,3.12
2023-04-20T06:04:46.798Z,3.19
2023-04-20T06:07:13.478Z,3.19
2023-04-20T06:09:40.210Z,3.21
2023-04-20T06:12:07.062Z,3.23
2023-04-20T06:14:33.730Z,3.23
2023-04-20T06:17:00.364Z,3.23
2023-04-20T06:19:27.080Z,3.19
2023-04-20T06:21:53.758Z,3.13
2023-04-20T06:24:20.351Z,3.15
2023-04-20T06:26:46.944Z,3.15
2023-04-20T06:29:13.552Z,3.32
2023-04-20T06:31:40.346Z,3.42
2023-04-20T06:34:07.049Z,3.48
2023-04-20T06:36:33.729Z,3.51
2023-04-20T06:39:00.462Z,3.52
2023-04-20T06:41:27.115Z,3.59
2023-04-20T06:43:56.046Z,3.70
2023-04-20T06:46:22.806Z,3.79
2023-04-20T06:48:49.455Z,3.83
2023-04-20T06:51:16.404Z,3.86
2023-04-20T06:53:43.047Z,3.81
2023-04-20T06:56:09.866Z,3.80
2023-04-20T06:58:36.516Z,3.87
2023-04-20T07:01:03.226Z,3.86
2023-04-20T07:03:30.421Z,3.91
2023-04-20T07:05:57.286Z,3.81
2023-04-20T07:08:23.957Z,3.83
2023-04-20T07:10:50.754Z,3.98
2023-04-20T07:13:17.364Z,3.90
2023-04-20T07:15:45.945Z,3.87
2023-04-20T07:18:12.707Z,3.87
2023-04-20T07:20:39.588Z,3.90
2023-04-20T07:23:06.567Z,3.91
2023-04-20T07:25:33.314Z,3.93
2023-04-20T07:28:00.207Z,4.03
2023-04-20T07:30:27.296Z,4.11
2023-04-20T07:32:54.329Z,4.11
2023-04-20T07:35:21.488Z,4.16
2023-04-20T07:37:48.473Z,4.25
2023-04-20T07:40:17.112Z,4.22
2023-04-20T07:42:44.154Z,4.27
2023-04-20T07:45:11.744Z,4.38
2023-04-20T07:47:39.122Z,4.36
2023-04-20T07:50:07.417Z,4.40
2023-04-20T07:52:34.826Z,4.42
2023-04-20T07:55:01.779Z,4.55
2023-04-20T07:57:29.428Z,4.72
2023-04-20T07:59:56.396Z,4.73
2023-04-20T08:02:23.197Z,4.83
2023-04-20T08:04:50.326Z,4.94
2023-04-20T08:07:17.812Z,4.99
2023-04-20T08:09:44.633Z,5.03
2023-04-20T08:12:11.412Z,5.03
2023-04-20T08:14:38.373Z,4.95
2023-04-20T08:17:05.128Z,5.06
2023-04-20T08:19:31.810Z,5.04
2023-04-20T08:21:59.355Z,4.92
2023-04-20T08:24:27.076Z,5.11
2023-04-20T08:26:53.706Z,5.15
2023-04-20T08:29:20.379Z,5.12
2023-04-20T08:31:48.522Z,5.19
2023-04-20T08:34:16.152Z,5.37
2023-04-20T08:36:44.055Z,5.56
2023-04-20T08:39:14.850Z,5.69
2023-04-20T08:41:41.538Z,5.90
2023-04-20T08:44:08.477Z,6.02
2023-04-20T08:46:35.530Z,5.94
2023-04-20T08:49:05.175Z,5.86
2023-04-20T08:51:32.675Z,5.79
2023-04-20T08:54:06.318Z,5.98
2023-04-20T08:56:40.498Z,6.11
2023-04-20T08:59:10.303Z,6.11
2023-04-20T09:01:41.622Z,6.03
2023-04-20T09:04:20.545Z,6.03
2023-04-20T09:06:52.630Z,6.12
2023-04-20T09:09:24.365Z,6.30
2023-04-20T09:12:04.407Z,6.13
2023-04-20T09:14:41.948Z,5.86
2023-04-20T09:17:08.568Z,5.84
2023-04-20T09:19:35.309Z,5.87
2023-04-20T09:22:06.627Z,5.84
2023-04-20T09:24:35.257Z,5.84
2023-04-20T09:27:03.654Z,5.95
2023-04-20T09:29:30.416Z,5.99
2023-04-20T09:31:57.152Z,5.90
2023-04-20T09:34:24.739Z,5.89
2023-04-20T09:36:54.757Z,6.06
2023-04-20T09:39:24.835Z,6.16
2023-04-20T09:41:52.539Z,6.19
2023-04-20T09:44:20.157Z,6.51
2023-04-20T09:46:47.149Z,6.65
2023-04-20T09:49:14.973Z,6.69
2023-04-20T09:51:46.682Z,6.41
2023-04-20T09:54:15.954Z,6.57
2023-04-20T09:56:43.227Z,6.54
2023-04-20T09:59:09.822Z,6.69
2023-04-20T10:01:38.186Z,6.72
2023-04-20T10:04:09.810Z,6.69
2023-04-20T10:06:37.787Z,6.72
2023-04-20T10:09:06.639Z,6.98
2023-04-20T10:11:52.624Z,6.96
2023-04-20T10:14:23.403Z,7.15
2023-04-20T10:17:04.515Z,6.88
2023-04-20T10:19:41.734Z,7.16
2023-04-20T10:22:10.477Z,7.29
2023-04-20T10:24:40.462Z,7.27
2023-04-20T10:27:20.360Z,7.32
2023-04-20T10:29:47.434Z,7.33
2023-04-20T10:32:25.013Z,7.23
2023-04-20T10:35:08.758Z,7.15
2023-04-20T10:37:36.103Z,7.28
2023-04-20T10:40:07.328Z,7.64
2023-04-20T10:42:45.267Z,7.73
2023-04-20T10:45:13.221Z,7.64
2023-04-20T10:47:42.715Z,7.62
2023-04-20T10:50:10.176Z,7.63
2023-04-20T10:52:38.143Z,7.54
2023-04-20T10:55:07.123Z,7.52
2023-04-20T10:57:33.991Z,7.52
2023-04-20T11:00:00.708Z,7.72
2023-04-20T11:02:28.610Z,7.95
2023-04-20T11:05:00.947Z,7.67
2023-04-20T11:07:27.800Z,7.87
2023-04-20T11:09:57.985Z,7.81
2023-04-20T11:12:24.618Z,7.85
2023-04-20T11:14:57.980Z,7.96
2023-04-20T11:17:38.050Z,8.07
2023-04-20T11:20:15.401Z,8.16
2023-04-20T11:22:43.766Z,8.26
2023-04-20T11:25:11.995Z,8.26
2023-04-20T11:27:39.648Z,8.14
2023-04-20T11:30:08.015Z,8.32
2023-04-20T11:32:36.637Z,8.27
2023-04-20T11:35:07.900Z,8.07
2023-04-20T11:37:51.133Z,8.00
2023-04-20T11:40:18.209Z,7.96
2023-04-20T11:42:44.860Z,7.94
2023-04-20T11:45:11.726Z,7.93
2023-04-20T11:47:41.163Z,7.84
2023-04-20T11:50:09.348Z,7.72
2023-04-20T11:52:36.232Z,7.70
2023-04-20T11:55:02.935Z,7.81
2023-04-20T11:57:29.607Z,7.84
2023-04-20T11:59:56.351Z,7.76
2023-04-20T12:02:23.111Z,7.70
2023-04-20T12:04:50.069Z,7.81
2023-04-20T12:07:16.880Z,7.81
2023-04-20T12:09:44.512Z,7.71
2023-04-20T12:12:11.286Z,7.83
2023-04-20T12:14:37.911Z,7.86
2023-04-20T12:17:05.055Z,7.89
2023-04-20T12:19:31.879Z,7.87
2023-04-20T12:21:58.543Z,7.77
2023-04-20T12:24:25.418Z,7.71
2023-04-20T12:26:52.183Z,7.70
2023-04-20T12:29:19.094Z,7.75
2023-04-20T12:31:46.374Z,7.72
2023-04-20T12:34:13.068Z,7.75
2023-04-20T12:36:39.692Z,7.80
2023-04-20T12:39:06.528Z,7.69
2023-04-20T12:41:33.427Z,7.68
2023-04-20T12:44:01.156Z,7.72
2023-04-20T12:46:29.143Z,7.73
2023-04-20T12:48:56.321Z,7.74
2023-04-20T12:51:22.928Z,7.82
2023-04-20T12:53:49.538Z,7.79
2023-04-20T12:56:16.565Z,7.85
2023-04-20T12:58:43.780Z,7.82
2023-04-20T13:01:10.479Z,7.84
2023-04-20T13:03:37.561Z,7.71
2023-04-20T13:06:05.918Z,7.74
2023-04-20T13:08:32.570Z,7.71
2023-04-20T13:10:59.332Z,7.69
2023-04-20T13:13:26.264Z,7.61
2023-04-20T13:15:56.223Z,7.64
2023-04-20T13:18:24.478Z,7.75
2023-04-20T13:20:51.296Z,7.75
2023-04-20T13:23:18.173Z,7.86
2023-04-20T13:25:44.963Z,7.83
2023-04-20T13:28:14.482Z,7.83
2023-04-20T13:30:41.580Z,7.83
2023-04-20T13:33:08.296Z,7.78
2023-04-20T13:35:35.088Z,7.76
2023-04-20T13:38:02.224Z,7.86
2023-04-20T13:40:28.890Z,7.90
2023-04-20T13:42:55.736Z,8.02
2023-04-20T13:45:22.376Z,8.05
2023-04-20T13:47:49.075Z,8.14
2023-04-20T13:50:15.750Z,8.04
2023-04-20T13:52:42.314Z,8.02
2023-04-20T13:55:09.347Z,8.02
2023-04-20T13:57:36.049Z,8.05
2023-04-20T14:00:02.984Z,7.97
2023-04-20T14:02:29.980Z,7.91
2023-04-20T14:04:56.877Z,7.97
2023-04-20T14:07:23.660Z,8.09
2023-04-20T14:09:51.047Z,8.09
2023-04-20T14:12:17.676Z,8.08
2023-04-20T14:14:44.441Z,8.01
2023-04-20T14:17:11.697Z,8.10
2023-04-20T14:19:38.429Z,8.09
2023-04-20T14:22:05.148Z,7.98
2023-04-20T14:24:31.869Z,7.83
2023-04-20T14:26:59.524Z,7.86
2023-04-20T14:29:26.180Z,7.83
2023-04-20T14:31:52.989Z,7.87
2023-04-20T14:34:20.102Z,7.86
2023-04-20T14:36:46.966Z,7.86
2023-04-20T14:39:13.584Z,7.63
2023-04-20T14:41:40.305Z,7.75
2023-04-20T14:44:06.955Z,7.73
2023-04-20T14:46:33.721Z,7.64
2023-04-20T14:49:00.371Z,7.65
2023-04-20T14:51:27.153Z,7.64
2023-04-20T14:53:53.851Z,7.69
2023-04-20T14:56:20.824Z,7.69
2023-04-20T14:58:48.049Z,7.71
2023-04-20T15:01:15.287Z,7.70
2023-04-20T15:03:42.272Z,7.68
2023-04-20T15:06:09.160Z,7.62
2023-04-20T15:08:36.032Z,7.61
2023-04-20T15:11:05.205Z,7.54
2023-04-20T15:13:31.895Z,7.53
2023-04-20T15:15:58.680Z,7.47
2023-04-20T15:18:25.326Z,7.42
2023-04-20T15:20:55.186Z,7.45
2023-04-20T15:23:22.237Z,7.50
2023-04-20T15:25:48.881Z,7.48
2023-04-20T15:28:15.772Z,7.43
2023-04-20T15:30:42.620Z,7.47
2023-04-20T15:33:09.403Z,7.45
2023-04-20T15:35:36.225Z,7.41
2023-04-20T15:38:03.672Z,7.46
2023-04-20T15:40:30.449Z,7.44
2023-04-20T15:42:57.254Z,7.44
2023-04-20T15:45:23.980Z,7.38
2023-04-20T15:47:51.631Z,7.36
2023-04-20T15:50:18.592Z,7.41
2023-04-20T15:52:45.905Z,7.40
2023-04-20T15:55:12.777Z,7.37
2023-04-20T15:57:39.430Z,7.41
2023-04-20T16:00:07.903Z,7.39
2023-04-20T16:02:34.857Z,7.42
2023-04-20T16:05:02.428Z,7.38
2023-04-20T16:07:29.312Z,7.36
2023-04-20T16:09:55.938Z,7.35
2023-04-20T16:12:22.575Z,7.31
2023-04-20T16:14:49.603Z,7.24
2023-04-20T16:17:17.057Z,7.17
2023-04-20T16:19:43.768Z,7.19
2023-04-20T16:22:10.712Z,7.18
2023-04-20T16:24:37.350Z,7.16
2023-04-20T16:27:04.036Z,7.15
2023-04-20T16:29:30.791Z,7.13
2023-04-20T16:31:57.866Z,7.11
2023-04-20T16:34:24.615Z,7.05
2023-04-20T16:36:51.235Z,7.05
2023-04-20T16:39:18.684Z,7.06
2023-04-20T16:41:45.638Z,7.08
2023-04-20T16:44:16.677Z,7.04
2023-04-20T16:46:44.268Z,7.05
2023-04-20T16:49:10.936Z,6.97
2023-04-20T16:51:37.569Z,6.95
2023-04-20T16:54:04.459Z,6.96
2023-04-20T16:56:31.261Z,6.96
2023-04-20T16:58:58.285Z,6.93
2023-04-20T17:01:25.138Z,6.91
2023-04-20T17:03:52.097Z,6.91
2023-04-20T17:06:18.847Z,6.91
2023-04-20T17:08:45.608Z,6.97
2023-04-20T17:11:13.790Z,6.92
2023-04-20T17:13:40.376Z,6.95
2023-04-20T17:16:07.054Z,6.97
2023-04-20T17:18:35.216Z,6.99
2023-04-20T17:21:02.347Z,6.96
2023-04-20T17:23:29.741Z,6.92
2023-04-20T17:25:58.285Z,6.89
2023-04-20T17:28:24.933Z,6.89
2023-04-20T17:30:51.743Z,6.84
2023-04-20T17:33:18.362Z,6.85
2023-04-20T17:35:46.541Z,6.80
2023-04-20T17:38:13.333Z,6.80
2023-04-20T17:40:39.983Z,6.85
2023-04-20T17:43:06.640Z,6.83
2023-04-20T17:45:33.352Z,6.86
2023-04-20T17:47:59.986Z,6.87
2023-04-20T17:50:26.656Z,6.82
2023-04-20T17:52:53.369Z,6.89
2023-04-20T17:55:20.819Z,6.84
2023-04-20T17:57:47.559Z,6.89
2023-04-20T18:00:14.938Z,6.85
2023-04-20T18:02:41.819Z,6.87
2023-04-20T18:05:08.832Z,6.81
2023-04-20T18:07:35.537Z,6.79
2023-04-20T18:10:02.614Z,6.80
2023-04-20T18:12:29.246Z,6.85
2023-04-20T18:14:55.972Z,6.83
2023-04-20T18:17:22.897Z,6.81
2023-04-20T18:19:49.518Z,6.85
2023-04-20T18:22:16.674Z,6.81
2023-04-20T18:24:43.778Z,6.78
2023-04-20T18:27:10.567Z,6.87
2023-04-20T18:29:37.256Z,6.91
2023-04-20T18:32:04.251Z,6.92
2023-04-20T18:34:32.272Z,6.98
2023-04-20T18:36:59.117Z,6.99
2023-04-20T18:39:26.393Z,6.98
2023-04-20T18:41:53.195Z,6.96
2023-04-20T18:44:20.176Z,6.97
2023-04-20T18:46:47.279Z,7.00
2023-04-20T18:49:14.441Z,7.04
2023-04-20T18:51:41.134Z,7.01
2023-04-20T18:54:07.942Z,7.07
2023-04-20T18:56:34.628Z,7.05
2023-04-20T18:59:01.625Z,6.99
2023-04-20T19:01:28.640Z,7.01
2023-04-20T19:03:55.733Z,6.99
2023-04-20T19:06:22.802Z,6.98
2023-04-20T19:08:52.532Z,7.01
2023-04-20T19:11:19.139Z,7.03
2023-04-20T19:13:46.001Z,7.02
2023-04-20T19:16:12.837Z,7.00
2023-04-20T19:18:39.833Z,7.01
2023-04-20T19:21:06.645Z,7.05
2023-04-20T19:23:35.756Z,7.02
2023-04-20T19:26:02.862Z,7.05
2023-04-20T19:28:30.216Z,7.07
2023-04-20T19:30:57.792Z,7.09
2023-04-20T19:33:24.554Z,7.13
2023-04-20T19:35:51.286Z,7.11
2023-04-20T19:38:19.469Z,7.17
2023-04-20T19:40:47.691Z,7.13
2023-04-20T19:43:14.526Z,7.13
2023-04-20T19:45:41.196Z,7.13
2023-04-20T19:48:08.165Z,7.13
2023-04-20T19:50:34.932Z,7.15
2023-04-20T19:53:01.774Z,7.18
2023-04-20T19:55:28.448Z,7.20
2023-04-20T19:57:55.112Z,7.26
2023-04-20T20:00:21.935Z,7.33
2023-04-20T20:02:48.838Z,7.31
2023-04-20T20:05:15.793Z,7.31
2023-04-20T20:07:42.553Z,7.31
2023-04-20T20:10:09.342Z,7.31
2023-04-20T20:12:35.984Z,7.30
2023-04-20T20:15:04.069Z,7.36
2023-04-20T20:17:30.834Z,7.32
2023-04-20T20:19:58.172Z,7.33
2023-04-20T20:22:24.915Z,7.33
2023-04-20T20:24:54.179Z,7.33
2023-04-20T20:27:21.346Z,7.34
2023-04-20T20:29:48.090Z,7.35
2023-04-20T20:32:14.809Z,7.40
2023-04-20T20:34:41.468Z,7.36
2023-04-20T20:37:34.907Z,7.39
2023-04-20T20:40:05.811Z,7.34
2023-04-20T20:42:33.739Z,7.38
2023-04-20T20:45:01.043Z,7.41
2023-04-20T20:47:27.728Z,7.48
2023-04-20T20:49:54.404Z,7.46
2023-04-20T20:52:21.179Z,7.46
2023-04-20T20:54:47.938Z,7.46
2023-04-20T20:57:14.564Z,7.48
2023-04-20T20:59:41.230Z,7.49
2023-04-20T21:02:07.900Z,7.50
2023-04-20T21:04:35.106Z,7.54
2023-04-20T21:07:01.676Z,7.44
2023-04-20T21:09:28.473Z,7.45
2023-04-20T21:11:57.650Z,7.45
2023-04-20T21:14:24.349Z,7.47
2023-04-20T21:16:51.096Z,7.50
2023-04-20T21:19:18.174Z,7.45
2023-04-20T21:21:45.028Z,7.43
2023-04-20T21:24:11.774Z,7.36
2023-04-20T21:26:38.454Z,7.40
2023-04-20T21:29:05.819Z,7.40
2023-04-20T21:31:33.056Z,7.39
2023-04-20T21:33:59.976Z,7.47
2023-04-20T21:36:27.952Z,7.45
2023-04-20T21:38:55.149Z,7.52
2023-04-20T21:41:21.895Z,7.53
2023-04-20T21:43:48.619Z,7.50
2023-04-20T21:46:15.878Z,7.54
2023-04-20T21:48:42.731Z,7.56
2023-04-20T21:51:14.217Z,7.57
2023-04-20T21:53:41.089Z,7.59
2023-04-20T21:56:07.722Z,7.52
2023-04-20T21:58:34.600Z,7.50
2023-04-20T22:01:01.391Z,7.50
2023-04-20T22:03:31.482Z,7.53
2023-04-20T22:05:59.029Z,7.52
2023-04-20T22:08:25.836Z,7.55
2023-04-20T22:10:52.575Z,7.63
2023-04-20T22:13:20.031Z,7.66
2023-04-20T22:15:47.583Z,7.62
2023-04-20T22:18:14.426Z,7.66
2023-04-20T22:20:41.080Z,7.68
2023-04-20T22:23:07.695Z,7.72
2023-04-20T22:25:34.398Z,7.73
2023-04-20T22:28:01.060Z,7.74
2023-04-20T22:30:27.872Z,7.74
2023-04-20T22:32:54.546Z,7.77
2023-04-20T22:35:21.236Z,7.76
2023-04-20T22:37:47.899Z,7.74
2023-04-20T22:40:14.721Z,7.74
2023-04-20T22:42:41.431Z,7.74
2023-04-20T22:45:10.948Z,7.76
2023-04-20T22:47:38.181Z,7.71
2023-04-20T22:50:06.189Z,7.71
2023-04-20T22:52:32.795Z,7.68
2023-04-20T22:55:00.379Z,7.67
2023-04-20T22:57:26.974Z,7.75
2023-04-20T22:59:53.648Z,7.80
2023-04-20T23:02:20.286Z,7.80
2023-04-20T23:04:47.382Z,7.86
2023-04-20T23:07:13.985Z,7.82
2023-04-20T23:09:41.454Z,7.82
2023-04-20T23:12:11.696Z,7.81
2023-04-20T23:14:42.416Z,7.78
2023-04-20T23:17:10.367Z,7.84
2023-04-20T23:19:38.561Z,7.84
2023-04-20T23:22:08.820Z,7.78
2023-04-20T23:24:35.790Z,7.88
2023-04-20T23:27:02.733Z,7.89
2023-04-20T23:29:29.454Z,7.86
2023-04-20T23:31:56.202Z,7.91
2023-04-20T23:34:22.870Z,7.91
2023-04-20T23:36:50.606Z,7.90
2023-04-20T23:39:17.773Z,7.91
2023-04-20T23:41:44.993Z,7.81
2023-04-20T23:44:11.770Z,7.82
2023-04-20T23:46:38.943Z,7.78
2023-04-20T23:49:05.672Z,7.79
2023-04-20T23:51:32.427Z,7.76
2023-04-20T23:53:59.040Z,7.76
2023-04-20T23:56:25.994Z,7.69
2023-04-20T23:58:52.540Z,7.61
